Time;durP1;ratioP1;P1;durP2;ratioP2;P2;SDS_P1;SDS_P2;PMS_P1;PMS_P2;Temp;Humidity;BMP_temperature;BMP_pressure;BME280_temperature;BME280_humidity;BME280_pressure;Samples;Min_cycle;Max_cycle;Signal;HPM_P1;HPM_P2
2022/03/29 00:00:47;;;;;;;14.70;9.70;;;;;;;8.29;48.43;99421.91;106364;1268;137348;-75
2022/03/29 00:03:19;;;;;;;15.40;9.50;;;;;;;8.25;48.60;99426.54;106521;1268;96589;-73
2022/03/29 00:05:51;;;;;;;14.00;9.30;;;;;;;8.22;48.71;99425.10;106378;1268;138180;-75
2022/03/29 00:08:23;;;;;;;18.40;10.00;;;;;;;8.19;48.75;99429.02;106516;1268;111083;-74
2022/03/29 00:10:56;;;;;;;19.90;10.20;;;;;;;8.15;48.75;99421.37;106459;1268;108505;-74
2022/03/29 00:13:28;;;;;;;18.90;9.50;;;;;;;8.12;48.84;99414.73;107629;1268;138344;-74
2022/03/29 00:15:59;;;;;;;13.90;9.20;;;;;;;8.09;49.01;99412.08;106478;1268;96467;-74
2022/03/29 00:18:31;;;;;;;19.40;9.60;;;;;;;8.06;49.14;99408.33;106432;1268;137212;-74
2022/03/29 00:21:03;;;;;;;15.30;9.70;;;;;;;8.03;49.14;99402.90;106525;1269;111010;-74
2022/03/29 00:23:36;;;;;;;16.70;9.40;;;;;;;8.02;49.26;99404.68;106491;1268;109362;-74
2022/03/29 00:26:08;;;;;;;19.30;10.70;;;;;;;8.01;49.26;99408.70;107799;1268;137409;-75
2022/03/29 00:28:40;;;;;;;14.80;9.10;;;;;;;8.00;49.40;99401.48;107959;1267;94827;-75
2022/03/29 00:31:12;;;;;;;16.00;10.00;;;;;;;7.98;49.64;99389.42;107871;1267;137231;-76
2022/03/29 00:33:44;;;;;;;18.10;10.20;;;;;;;7.97;49.69;99391.19;107984;1268;110027;-75
2022/03/29 00:36:16;;;;;;;20.80;12.10;;;;;;;7.94;49.62;99386.82;107877;1268;137775;-75
2022/03/29 00:38:48;;;;;;;18.50;11.80;;;;;;;7.90;49.94;99382.10;106581;1267;109044;-74
2022/03/29 00:41:20;;;;;;;20.00;12.50;;;;;;;7.86;50.09;99377.35;106492;1268;96481;-74
2022/03/29 00:43:52;;;;;;;22.40;13.00;;;;;;;7.83;49.93;99379.73;107625;1268;137799;-75
2022/03/29 00:46:24;;;;;;;18.40;12.70;;;;;;;7.77;50.18;99374.92;107988;1268;109925;-74
2022/03/29 00:48:57;;;;;;;20.80;12.60;;;;;;;7.73;50.27;99366.41;107855;1268;138080;-74
2022/03/29 00:51:29;;;;;;;23.90;12.70;;;;;;;7.68;50.64;99365.18;107528;1268;108876;-74
2022/03/29 00:54:01;;;;;;;18.00;12.30;;;;;;;7.64;50.58;99368.45;106438;1270;138699;-74
2022/03/29 00:56:33;;;;;;;24.40;12.50;;;;;;;7.61;50.85;99363.54;107068;1267;96485;-74
2022/03/29 00:59:06;;;;;;;20.90;12.90;;;;;;;7.57;50.83;99363.00;106518;1268;110228;-76
2022/03/29 01:01:38;;;;;;;21.90;13.10;;;;;;;7.53;50.95;99361.55;107115;1268;138041;-74
2022/03/29 01:04:10;;;;;;;21.90;12.60;;;;;;;7.50;51.13;99360.09;106539;1268;108868;-74
2022/03/29 01:06:43;;;;;;;19.00;12.20;;;;;;;7.49;51.38;99357.02;106316;1268;137547;-74
2022/03/29 01:09:15;;;;;;;17.40;11.80;;;;;;;7.47;51.30;99357.44;106514;1268;97756;-75
2022/03/29 01:11:48;;;;;;;17.60;11.90;;;;;;;7.46;51.43;99356.45;106579;1268;111137;-75
2022/03/29 01:14:21;;;;;;;18.20;12.20;;;;;;;7.44;51.59;99353.77;106413;1268;137896;-74
2022/03/29 01:19:44;;;;;;;18.50;11.80;;;;;;;7.39;51.84;99359.79;106366;1268;138398;-76
2022/03/29 01:22:16;;;;;;;18.00;11.50;;;;;;;7.37;51.79;99356.94;106473;1270;97915;-75
2022/03/29 01:24:49;;;;;;;18.30;11.50;;;;;;;7.35;51.80;99350.06;106385;1268;137328;-75
2022/03/29 01:27:23;;;;;;;18.80;11.60;;;;;;;7.34;52.25;99354.95;106678;1268;109005;-74
2022/03/29 01:29:59;;;;;;;15.50;10.80;;;;;;;7.33;51.97;99350.98;106512;1268;107146;-76
2022/03/29 01:32:32;;;;;;;19.10;10.90;;;;;;;7.34;52.31;99348.89;107550;1268;138122;-75
2022/03/29 01:35:06;;;;;;;18.80;11.50;;;;;;;7.33;52.31;99348.73;106469;1270;96382;-76
2022/03/29 01:37:39;;;;;;;19.30;11.70;;;;;;;7.34;52.15;99349.73;107868;1268;138880;-75
2022/03/29 01:40:15;;;;;;;22.70;11.60;;;;;;;7.33;52.14;99344.41;107397;1270;108795;-76
2022/03/29 01:42:51;;;;;;;18.70;10.30;;;;;;;7.31;52.34;99342.25;107856;1268;137586;-74
2022/03/29 01:45:25;;;;;;;19.60;11.10;;;;;;;7.28;52.44;99343.02;106617;1268;96535;-74
2022/03/29 01:47:58;;;;;;;21.40;11.30;;;;;;;7.27;52.71;99337.02;106545;1267;96493;-75
2022/03/29 01:50:30;;;;;;;18.10;10.90;;;;;;;7.26;52.63;99332.36;106451;1268;137601;-75
2022/03/29 01:53:02;;;;;;;17.80;10.80;;;;;;;7.26;52.65;99331.84;106461;1268;108469;-75
2022/03/29 01:55:34;;;;;;;17.60;10.70;;;;;;;7.25;52.64;99324.95;106371;1268;137538;-75
2022/03/29 01:58:06;;;;;;;17.10;10.50;;;;;;;7.24;52.82;99323.27;106445;1270;96497;-75
2022/03/29 02:00:41;;;;;;;16.10;10.50;;;;;;;7.25;52.81;99324.13;106625;1268;137715;-75
2022/03/29 02:03:13;;;;;;;20.90;10.80;;;;;;;7.23;52.81;99324.34;106909;1268;109304;-76
2022/03/29 02:05:46;;;;;;;17.40;10.40;;;;;;;7.22;52.88;99330.10;106517;1268;108872;-75
2022/03/29 02:08:18;;;;;;;16.80;10.90;;;;;;;7.19;52.95;99326.23;106373;1268;137696;-76
2022/03/29 02:10:50;;;;;;;18.20;11.50;;;;;;;7.15;53.05;99324.60;106495;1268;96600;-76
2022/03/29 02:13:22;;;;;;;15.20;10.80;;;;;;;7.13;53.02;99318.43;106356;1270;137640;-74
2022/03/29 02:15:54;;;;;;;16.80;10.50;;;;;;;7.12;53.37;99318.11;106444;1271;110500;-75
2022/03/29 02:18:26;;;;;;;16.70;10.30;;;;;;;7.10;53.08;99317.34;106466;1268;138043;-76
2022/03/29 02:20:58;;;;;;;16.70;10.60;;;;;;;7.07;53.19;99314.87;106452;1268;109191;-73
2022/03/29 02:23:30;;;;;;;18.20;10.90;;;;;;;7.04;53.43;99311.15;106480;1268;96517;-76
2022/03/29 02:26:04;;;;;;;22.20;11.30;;;;;;;7.02;53.43;99306.05;106402;1268;137315;-75
2022/03/29 02:28:36;;;;;;;17.60;10.50;;;;;;;6.98;53.75;99314.95;107958;1268;110123;-75
2022/03/29 02:31:08;;;;;;;17.60;11.20;;;;;;;6.96;53.76;99311.73;107898;1267;138481;-76
2022/03/29 02:33:41;;;;;;;18.00;11.40;;;;;;;6.94;53.94;99307.31;107996;1268;108011;-75
2022/03/29 02:36:15;;;;;;;18.30;10.90;;;;;;;6.89;54.00;99306.95;107867;1268;140118;-75
2022/03/29 02:38:47;;;;;;;18.60;11.60;;;;;;;6.84;54.27;99306.27;108007;1268;94775;-75
2022/03/29 02:41:19;;;;;;;21.40;11.30;;;;;;;6.79;54.41;99309.00;107963;1268;110957;-76
2022/03/29 02:43:51;;;;;;;17.50;11.50;;;;;;;6.75;54.68;99304.14;107271;1268;138096;-75
2022/03/29 02:46:23;;;;;;;20.50;11.80;;;;;;;6.75;54.68;99309.14;106439;1268;109130;-76
2022/03/29 02:48:55;;;;;;;16.80;11.40;;;;;;;6.75;54.91;99314.00;106752;1268;138528;-76
2022/03/29 02:51:27;;;;;;;16.60;11.10;;;;;;;6.74;54.68;99313.83;107291;1268;95169;-75
2022/03/29 02:53:58;;;;;;;16.80;11.00;;;;;;;6.75;55.08;99305.02;106497;1268;111091;-75
2022/03/29 02:56:30;;;;;;;18.30;11.20;;;;;;;6.74;55.03;99309.88;107465;1267;138091;-75
2022/03/29 02:59:03;;;;;;;18.80;11.50;;;;;;;6.74;55.25;99309.18;106437;1268;108025;-75
2022/03/29 03:01:35;;;;;;;18.30;11.10;;;;;;;6.74;55.31;99314.02;106642;1269;138676;-75
2022/03/29 03:04:08;;;;;;;18.20;11.70;;;;;;;6.73;55.33;99313.52;106487;1268;96360;-76
2022/03/29 03:06:41;;;;;;;16.20;11.20;;;;;;;6.73;55.32;99311.13;106452;1268;139545;-75
2022/03/29 03:09:13;;;;;;;20.10;11.60;;;;;;;6.74;55.34;99307.46;107817;1267;109423;-75
2022/03/29 03:11:45;;;;;;;18.10;11.50;;;;;;;6.72;55.69;99304.92;106443;1270;108368;-75
2022/03/29 03:14:17;;;;;;;18.80;11.60;;;;;;;6.71;55.46;99302.88;106375;1268;138256;-76
2022/03/29 03:16:49;;;;;;;24.70;12.20;;;;;;;6.72;55.73;99303.72;106472;1268;96488;-75
2022/03/29 03:19:40;;;;;;;19.30;12.00;;;;;;;6.72;55.93;99305.44;106353;1270;138165;-75
2022/03/29 03:22:12;;;;;;;17.70;12.30;;;;;;;6.73;56.04;99300.07;106406;1268;108779;-75
2022/03/29 03:24:44;;;;;;;21.00;12.80;;;;;;;6.74;56.04;99297.27;106393;1268;139940;-75
2022/03/29 03:27:16;;;;;;;19.00;12.40;;;;;;;6.72;56.21;99295.94;106471;1269;96466;-75
2022/03/29 03:29:48;;;;;;;17.50;12.30;;;;;;;6.70;56.08;99295.66;107989;1268;94712;-76
2022/03/29 03:32:20;;;;;;;23.30;13.40;;;;;;;6.67;56.31;99292.48;107856;1268;137189;-76
2022/03/29 03:34:52;;;;;;;20.90;13.50;;;;;;;6.63;56.29;99293.63;107198;1268;108773;-75
2022/03/29 03:37:24;;;;;;;18.20;12.80;;;;;;;6.61;56.43;99298.18;106449;1268;137506;-75
2022/03/29 03:39:56;;;;;;;19.90;13.00;;;;;;;6.60;56.62;99304.06;106509;1268;96468;-75
2022/03/29 03:42:28;;;;;;;18.50;12.30;;;;;;;6.57;56.82;99306.77;106366;1269;139273;-75
2022/03/29 03:45:02;;;;;;;19.20;12.30;;;;;;;6.52;56.93;99310.02;106517;1268;111184;-74
2022/03/29 03:47:34;;;;;;;18.80;12.40;;;;;;;6.47;56.78;99318.99;106445;1271;109123;-74
2022/03/29 03:50:08;;;;;;;20.10;12.50;;;;;;;6.46;57.23;99315.73;106338;1269;138187;-74
2022/03/29 03:52:40;;;;;;;24.00;13.50;;;;;;;6.46;57.14;99321.27;107925;1268;94683;-75
2022/03/29 03:55:13;;;;;;;19.50;12.90;;;;;;;6.47;57.34;99316.42;107790;1270;138116;-75
2022/03/29 03:57:45;;;;;;;18.20;12.50;;;;;;;6.48;57.31;99311.22;106520;1268;110749;-75
2022/03/29 04:00:21;;;;;;;18.80;12.90;;;;;;;6.47;57.39;99310.02;106400;1268;138348;-74
2022/03/29 04:02:54;;;;;;;21.90;13.20;;;;;;;6.46;57.39;99319.36;107258;1268;108752;-74
2022/03/29 04:05:27;;;;;;;20.40;13.30;;;;;;;6.42;57.56;99322.92;106424;1268;96487;-76
2022/03/29 04:07:59;;;;;;;19.40;13.30;;;;;;;6.40;57.83;99326.11;106350;1270;138508;-75
2022/03/29 04:10:33;;;;;;;17.00;12.70;;;;;;;6.38;58.01;99330.66;106500;1268;111238;-75
2022/03/29 04:13:06;;;;;;;19.00;12.80;;;;;;;6.35;57.77;99316.95;106402;1268;139108;-75
2022/03/29 04:15:38;;;;;;;18.90;13.00;;;;;;;6.30;58.12;99316.56;106488;1268;108888;-75
2022/03/29 04:18:10;;;;;;;19.60;12.70;;;;;;;6.29;58.11;99316.24;106491;1268;97315;-74
2022/03/29 04:20:42;;;;;;;20.30;13.80;;;;;;;6.27;58.23;99326.83;107868;1268;137136;-76
2022/03/29 04:23:14;;;;;;;21.40;13.90;;;;;;;6.26;58.37;99343.77;107986;1268;111308;-76
2022/03/29 04:25:46;;;;;;;24.80;14.30;;;;;;;6.26;58.44;99335.16;107064;1268;137435;-75
2022/03/29 04:28:19;;;;;;;19.60;14.50;;;;;;;6.27;58.53;99324.42;106503;1268;108847;-75
2022/03/29 04:30:55;;;;;;;23.80;15.80;;;;;;;6.27;58.86;99312.67;106350;1269;137769;-75
2022/03/29 04:33:27;;;;;;;20.00;13.50;;;;;;;6.30;59.38;99307.09;107965;1268;94743;-76
2022/03/29 04:35:59;;;;;;;23.60;13.60;;;;;;;6.32;59.49;99288.35;107946;1268;110942;-75
2022/03/29 04:38:31;;;;;;;17.70;13.30;;;;;;;6.32;59.71;99293.38;107857;1268;138758;-76
2022/03/29 04:41:04;;;;;;;19.20;13.00;;;;;;;6.34;60.11;99290.55;107912;1268;107780;-76
2022/03/29 04:43:36;;;;;;;23.50;15.00;;;;;;;6.35;59.95;99291.71;107859;1268;138388;-76
2022/03/29 04:46:08;;;;;;;19.40;13.40;;;;;;;6.37;60.04;99297.38;107958;1268;94544;-76
2022/03/29 04:48:40;;;;;;;21.60;14.40;;;;;;;6.42;60.48;99315.52;107854;1268;138191;-75
2022/03/29 04:51:12;;;;;;;22.00;13.90;;;;;;;6.43;60.27;99325.33;107945;1268;108850;-76
2022/03/29 04:53:44;;;;;;;27.90;15.50;;;;;;;6.45;60.48;99323.52;107922;1268;107700;-75
2022/03/29 04:56:16;;;;;;;28.30;20.10;;;;;;;6.46;60.30;99326.25;106549;1271;137813;-76
2022/03/29 04:58:48;;;;;;;36.30;21.70;;;;;;;6.45;60.54;99330.44;106495;1269;96460;-75
2022/03/29 05:01:20;;;;;;;24.20;15.50;;;;;;;6.42;60.46;99331.05;107378;1268;137500;-75
2022/03/29 05:03:52;;;;;;;30.80;18.90;;;;;;;6.33;60.68;99327.71;106506;1269;108318;-76
2022/03/29 05:06:24;;;;;;;25.30;16.50;;;;;;;6.28;60.75;99319.21;106311;1271;137792;-75
2022/03/29 05:08:56;;;;;;;27.10;16.80;;;;;;;6.25;61.07;99315.34;106471;1268;96495;-74
2022/03/29 05:11:28;;;;;;;26.50;14.50;;;;;;;6.23;61.18;99319.69;106507;1271;96468;-75
2022/03/29 05:14:00;;;;;;;27.20;16.30;;;;;;;6.25;61.41;99321.73;106372;1268;138615;-75
2022/03/29 05:16:32;;;;;;;23.20;14.60;;;;;;;6.27;61.63;99330.47;106464;1268;108847;-75
2022/03/29 05:19:04;;;;;;;22.50;14.80;;;;;;;6.30;61.72;99327.43;106322;1270;138698;-76
2022/03/29 05:21:36;;;;;;;21.80;15.50;;;;;;;6.38;61.77;99332.74;106474;1268;96497;-75
2022/03/29 05:24:09;;;;;;;20.30;13.20;;;;;;;6.44;61.58;99324.59;106471;1271;96466;-74
2022/03/29 05:26:42;;;;;;;22.90;14.30;;;;;;;6.51;61.64;99315.60;106404;1271;137299;-76
2022/03/29 05:29:14;;;;;;;21.40;14.70;;;;;;;6.57;61.61;99319.54;106532;1268;109192;-74
2022/03/29 05:31:46;;;;;;;25.70;15.10;;;;;;;6.58;61.46;99329.01;106391;1268;138803;-74
2022/03/29 05:34:19;;;;;;;25.40;14.90;;;;;;;6.54;61.76;99328.28;106449;1268;96462;-75
2022/03/29 05:36:51;;;;;;;26.30;14.90;;;;;;;6.54;61.85;99332.95;106392;1271;137933;-75
2022/03/29 05:39:23;;;;;;;23.20;14.80;;;;;;;6.50;61.72;99337.20;106544;1268;110172;-75
2022/03/29 05:41:54;;;;;;;24.20;14.80;;;;;;;6.47;62.03;99331.27;106507;1268;108980;-75
2022/03/29 05:44:26;;;;;;;22.90;13.60;;;;;;;6.48;61.91;99328.48;106347;1268;138385;-75
2022/03/29 05:49:48;;;;;;;24.20;15.60;;;;;;;6.49;62.17;99331.55;106375;1270;137494;-74
2022/03/29 05:52:21;;;;;;;26.90;16.00;;;;;;;6.52;62.32;99333.35;106487;1271;110130;-75
2022/03/29 05:54:53;;;;;;;27.00;15.50;;;;;;;6.52;62.29;99338.20;107178;1270;137843;-76
2022/03/29 05:57:25;;;;;;;24.60;16.10;;;;;;;6.54;62.22;99330.69;106544;1268;108342;-76
2022/03/29 05:59:57;;;;;;;23.10;16.00;;;;;;;6.53;62.21;99322.25;106496;1271;96545;-76
2022/03/29 06:02:29;;;;;;;25.30;16.60;;;;;;;6.58;62.29;99321.08;106414;1268;137423;-76
2022/03/29 06:05:02;;;;;;;24.40;16.70;;;;;;;6.66;62.39;99323.41;106452;1270;111212;-76
2022/03/29 06:07:34;;;;;;;24.00;15.90;;;;;;;6.75;62.40;99322.97;106419;1268;138168;-75
2022/03/29 06:10:07;;;;;;;23.60;15.30;;;;;;;6.77;62.18;99328.96;106499;1268;108560;-75
2022/03/29 06:12:39;;;;;;;24.10;16.10;;;;;;;6.76;62.22;99335.73;107849;1268;138570;-75
2022/03/29 06:15:13;;;;;;;23.00;16.00;;;;;;;6.78;62.13;99335.50;107965;1268;94758;-76
2022/03/29 06:17:45;;;;;;;24.70;16.30;;;;;;;6.78;62.45;99330.29;107823;1268;109937;-77
2022/03/29 06:20:17;;;;;;;26.70;17.90;;;;;;;6.78;62.34;99334.95;106472;1268;137583;-76
2022/03/29 06:22:48;;;;;;;26.60;19.20;;;;;;;6.78;62.17;99341.17;106588;1268;108312;-76
2022/03/29 06:25:21;;;;;;;34.50;21.80;;;;;;;6.75;61.98;99344.73;106529;1268;139280;-76
2022/03/29 06:27:54;;;;;;;31.20;23.00;;;;;;;6.73;62.01;99345.86;106492;1271;96485;-76
2022/03/29 06:30:26;;;;;;;35.10;24.90;;;;;;;6.69;61.89;99351.15;107618;1268;137980;-74
2022/03/29 06:32:59;;;;;;;40.30;29.30;;;;;;;6.61;61.88;99349.81;106675;1268;109124;-75
2022/03/29 06:35:32;;;;;;;45.00;29.70;;;;;;;6.56;62.06;99348.25;106517;1268;108213;-75
2022/03/29 06:38:05;;;;;;;48.00;30.50;;;;;;;6.52;62.28;99349.09;106617;1268;140211;-76
2022/03/29 06:40:38;;;;;;;42.40;29.50;;;;;;;6.47;62.01;99350.25;107947;1268;94466;-76
2022/03/29 06:43:10;;;;;;;39.60;29.20;;;;;;;6.48;62.17;99352.15;106581;1270;138297;-76
2022/03/29 06:45:42;;;;;;;44.50;31.80;;;;;;;6.46;62.16;99358.39;106489;1271;109016;-76
2022/03/29 06:48:14;;;;;;;51.00;33.50;;;;;;;6.45;62.17;99357.90;107915;1268;109212;-76
2022/03/29 06:50:47;;;;;;;50.20;33.80;;;;;;;6.46;62.17;99366.16;106584;1271;137722;-75
2022/03/29 06:53:19;;;;;;;54.10;35.20;;;;;;;6.48;62.08;99366.98;106458;1268;96356;-75
2022/03/29 06:55:52;;;;;;;53.30;34.10;;;;;;;6.48;62.12;99372.15;106374;1271;137463;-76
2022/03/29 06:58:23;;;;;;;53.20;36.20;;;;;;;6.48;62.26;99372.16;106479;1268;108916;-76
2022/03/29 07:00:56;;;;;;;49.00;33.70;;;;;;;6.47;62.28;99365.11;106338;1271;139256;-75
2022/03/29 07:03:29;;;;;;;47.70;32.20;;;;;;;6.46;62.34;99372.55;106477;1268;96783;-75
2022/03/29 07:06:03;;;;;;;41.30;28.90;;;;;;;6.45;62.17;99366.87;107304;1270;96468;-75
2022/03/29 07:11:15;;;;;;;39.70;27.80;;;;;;;6.48;62.33;99362.50;106401;1268;138053;-75
2022/03/29 07:11:45;;;;;;;38.30;25.40;;;;;;;6.53;62.35;99367.34;107680;1268;109159;-76
2022/03/29 07:14:18;;;;;;;35.90;26.50;;;;;;;6.60;62.22;99361.59;106473;1270;138114;-75
2022/03/29 07:16:50;;;;;;;38.20;26.80;;;;;;;6.65;62.20;99360.77;106474;1268;96458;-75
2022/03/29 07:19:23;;;;;;;39.50;27.80;;;;;;;6.68;61.92;99361.03;106456;1268;137650;-74
2022/03/29 07:21:56;;;;;;;42.10;27.10;;;;;;;6.69;62.07;99366.35;106561;1268;111262;-75
2022/03/29 07:24:28;;;;;;;38.80;26.10;;;;;;;6.72;62.16;99367.98;106400;1268;137858;-74
2022/03/29 07:27:01;;;;;;;38.40;26.60;;;;;;;6.73;61.93;99371.77;106500;1268;106467;-75
2022/03/29 07:29:33;;;;;;;41.70;26.90;;;;;;;6.73;62.02;99373.65;106545;1268;97178;-75
2022/03/29 07:32:07;;;;;;;38.20;26.70;;;;;;;6.72;62.04;99375.92;106971;1268;137380;-75
2022/03/29 07:34:38;;;;;;;43.80;27.30;;;;;;;6.67;61.76;99370.20;107975;1268;111085;-76
2022/03/29 07:37:11;;;;;;;38.10;26.90;;;;;;;6.66;61.68;99369.88;106757;1268;137591;-75
2022/03/29 07:39:43;;;;;;;39.40;26.40;;;;;;;6.72;61.81;99363.51;106423;1268;106960;-74
2022/03/29 07:42:15;;;;;;;39.80;25.30;;;;;;;6.75;61.71;99363.06;106476;1270;97941;-75
2022/03/29 07:44:46;;;;;;;37.70;23.40;;;;;;;6.83;61.68;99354.51;106392;1270;138658;-75
2022/03/29 07:47:20;;;;;;;38.50;24.10;;;;;;;6.95;61.52;99356.88;106478;1271;112150;-75
2022/03/29 07:49:52;;;;;;;38.40;25.70;;;;;;;7.11;61.56;99357.42;106417;1268;138353;-75
2022/03/29 07:52:44;;;;;;;34.60;25.30;;;;;;;7.29;61.19;99350.59;106424;1270;108836;-76
2022/03/29 07:55:16;;;;;;;39.00;25.60;;;;;;;7.43;61.24;99352.23;106280;1271;137938;-76
2022/03/29 07:58:08;;;;;;;42.20;26.30;;;;;;;7.56;60.67;99355.05;106488;1270;97870;-75
2022/03/29 08:00:40;;;;;;;39.40;27.10;;;;;;;7.63;60.11;99357.06;106417;1270;137938;-75
2022/03/29 08:03:15;;;;;;;39.60;25.70;;;;;;;7.74;60.14;99355.84;106448;1269;108976;-76
2022/03/29 08:05:49;;;;;;;36.30;26.20;;;;;;;7.85;59.98;99360.61;107962;1268;108869;-76
2022/03/29 08:08:21;;;;;;;40.00;28.10;;;;;;;7.94;59.66;99363.44;107850;1268;137904;-74
2022/03/29 08:10:53;;;;;;;42.20;28.70;;;;;;;7.94;59.54;99364.30;107934;1271;96032;-77
2022/03/29 08:13:25;;;;;;;43.50;28.70;;;;;;;8.00;59.52;99360.62;106470;1271;137823;-75
2022/03/29 08:15:58;;;;;;;46.00;32.10;;;;;;;8.10;59.31;99356.80;106479;1268;109059;-76
2022/03/29 08:18:30;;;;;;;45.50;31.40;;;;;;;8.20;59.05;99353.66;106356;1271;139067;-74
2022/03/29 08:21:47;;;;;;;44.70;31.90;;;;;;;8.29;58.70;99352.13;106454;1268;97822;-75
2022/03/29 08:23:54;;;;;;;49.60;33.30;;;;;;;8.40;58.67;99349.98;107262;1268;95878;-76
2022/03/29 08:26:26;;;;;;;47.90;35.30;;;;;;;8.55;58.64;99349.78;106407;1268;138160;-75
2022/03/29 08:28:58;;;;;;;48.10;34.80;;;;;;;8.68;58.49;99346.15;106509;1268;109199;-75
2022/03/29 08:31:30;;;;;;;53.50;37.40;;;;;;;8.77;58.26;99348.91;106392;1268;138319;-75
2022/03/29 08:34:02;;;;;;;54.90;36.80;;;;;;;8.84;57.96;99347.28;106450;1268;97904;-76
2022/03/29 08:36:36;;;;;;;52.60;38.30;;;;;;;8.87;57.85;99347.13;106392;1268;137827;-76
2022/03/29 08:39:10;;;;;;;51.20;37.90;;;;;;;8.94;57.63;99347.39;106556;1268;111370;-76
2022/03/29 08:41:48;;;;;;;51.60;37.10;;;;;;;8.89;57.54;99350.18;107995;1268;106363;-76
2022/03/29 08:44:20;;;;;;;49.70;37.50;;;;;;;8.83;57.37;99347.65;107268;1271;137816;-76
2022/03/29 08:46:53;;;;;;;58.80;38.60;;;;;;;8.84;57.39;99346.04;106497;1268;97854;-76
2022/03/29 08:49:26;;;;;;;56.00;37.30;;;;;;;8.78;57.13;99352.33;106349;1271;138170;-76
2022/03/29 08:51:59;;;;;;;51.40;35.60;;;;;;;8.82;57.40;99342.83;106474;1271;111842;-75
2022/03/29 08:54:33;;;;;;;44.00;31.50;;;;;;;9.00;57.38;99342.08;106399;1268;138437;-75
2022/03/29 08:57:05;;;;;;;42.10;29.10;;;;;;;9.20;57.10;99339.92;107945;1268;109016;-76
2022/03/29 08:59:37;;;;;;;42.50;29.50;;;;;;;9.52;56.86;99333.71;107963;1268;95799;-75
2022/03/29 09:02:15;;;;;;;41.80;29.00;;;;;;;10.31;56.64;99326.41;107830;1270;137721;-76
2022/03/29 09:05:08;;;;;;;34.20;27.10;;;;;;;11.71;54.74;99331.48;107966;1268;112346;-77
2022/03/29 09:07:52;;;;;;;32.90;25.20;;;;;;;13.28;52.76;99319.39;107851;1268;138827;-77
2022/03/29 09:10:41;;;;;;;29.00;23.50;;;;;;;14.65;50.65;99311.79;107923;1270;107574;-77
2022/03/29 09:13:18;;;;;;;29.50;21.50;;;;;;;15.72;48.72;99314.52;107832;1269;138910;-77
2022/03/29 09:15:49;;;;;;;;;;;;;;;16.57;46.96;99307.92;106714;1268;97935;-77
2022/03/29 09:18:22;;;;;;;31.30;21.60;;;;;;;16.63;45.12;99305.70;106516;1268;111503;-76
2022/03/29 09:24:11;;;;;;;29.30;21.20;;;;;;;15.56;43.94;99307.38;102799;1311;636638;-76
2022/03/29 09:26:45;;;;;;;27.70;21.30;;;;;;;14.83;44.38;99304.67;105535;1281;138022;-76
2022/03/29 09:29:20;;;;;;;27.00;21.00;;;;;;;14.31;44.68;99303.96;105620;1282;94428;-76
2022/03/29 09:32:07;;;;;;;27.40;21.40;;;;;;;13.67;45.12;99300.70;106777;1282;136722;-76
2022/03/29 09:34:39;;;;;;;30.10;21.10;;;;;;;13.06;45.71;99301.45;106729;1282;108330;-76
2022/03/29 09:37:11;;;;;;;25.60;21.30;;;;;;;12.58;46.35;99307.18;106655;1281;181582;-76
2022/03/29 09:39:44;;;;;;;31.10;22.60;;;;;;;12.08;46.91;99308.65;105868;1281;94909;-77
2022/03/29 09:42:19;;;;;;;33.20;21.60;;;;;;;11.67;47.51;99308.88;107643;1273;92790;-77
2022/03/29 09:44:55;;;;;;;32.10;22.60;;;;;;;11.28;48.14;99309.08;106934;1273;136837;-77
2022/03/29 09:47:29;;;;;;;33.10;22.60;;;;;;;10.95;48.76;99301.70;106203;1273;108975;-76
2022/03/29 09:50:06;;;;;;;33.20;23.60;;;;;;;10.74;49.44;99304.81;106933;1273;138086;-77
2022/03/29 09:52:39;;;;;;;31.40;24.00;;;;;;;10.55;49.82;99303.45;107692;1272;93341;-77
2022/03/29 09:55:17;;;;;;;36.60;23.00;;;;;;;10.35;50.32;99304.71;107612;1273;137437;-77
2022/03/29 09:57:51;;;;;;;36.50;24.90;;;;;;;10.22;50.67;99301.63;107049;1273;112141;-76
2022/03/29 10:00:36;;;;;;;34.60;25.80;;;;;;;10.11;50.96;99303.69;106198;1273;109140;-76
2022/03/29 10:03:10;;;;;;;32.40;24.20;;;;;;;10.05;51.22;99306.23;106479;1274;137799;-75
2022/03/29 10:05:43;;;;;;;32.50;23.80;;;;;;;10.04;51.44;99307.31;106137;1274;95167;-75
2022/03/29 10:11:09;;;;;;;28.30;20.60;;;;;;;10.02;51.26;99298.38;106871;1274;109920;-76
2022/03/29 10:13:42;;;;;;;26.70;20.60;;;;;;;9.96;50.95;99292.20;107580;1273;137359;-77
2022/03/29 10:16:16;;;;;;;27.40;20.30;;;;;;;9.94;51.06;99290.06;106289;1272;107783;-76
2022/03/29 10:18:49;;;;;;;28.40;19.50;;;;;;;10.00;50.69;99289.79;106106;1274;137369;-72
2022/03/29 10:21:21;;;;;;;28.20;19.40;;;;;;;10.06;50.28;99291.23;106197;1274;95560;-76
2022/03/29 10:24:01;;;;;;;28.20;18.30;;;;;;;10.09;50.10;99286.95;106099;1274;109777;-78
2022/03/29 10:26:34;;;;;;;27.00;18.80;;;;;;;10.13;49.89;99284.50;106910;1274;137301;-77
2022/03/29 10:29:10;;;;;;;25.60;18.20;;;;;;;10.16;49.78;99285.41;106143;1273;108188;-76
2022/03/29 10:31:53;;;;;;;25.80;18.40;;;;;;;10.13;49.58;99288.65;106070;1274;137497;-76
2022/03/29 10:34:27;;;;;;;28.50;18.80;;;;;;;10.06;49.44;99287.94;106325;1274;95254;-76
2022/03/29 10:37:04;;;;;;;22.70;17.80;;;;;;;9.98;49.48;99290.88;106143;1274;137886;-77
2022/03/29 10:39:45;;;;;;;23.90;17.20;;;;;;;9.93;49.44;99284.89;106230;1274;107591;-76
2022/03/29 10:42:46;;;;;;;22.90;16.30;;;;;;;9.97;49.50;99283.30;106527;1274;107865;-75
2022/03/29 10:45:22;;;;;;;25.20;17.70;;;;;;;10.14;49.41;99279.23;106096;1274;137050;-75
2022/03/29 10:48:12;;;;;;;23.80;16.60;;;;;;;10.22;49.06;99280.98;106352;1274;95115;-76
2022/03/29 10:50:59;;;;;;;30.50;18.00;;;;;;;10.22;48.77;99275.59;107578;1274;138151;-76
2022/03/29 10:53:35;;;;;;;26.30;17.90;;;;;;;10.14;48.95;99269.38;107680;1274;108311;-76
2022/03/29 10:56:25;;;;;;;29.10;17.40;;;;;;;10.06;48.85;99273.55;107539;1274;137301;-77
2022/03/29 10:59:16;;;;;;;23.60;15.70;;;;;;;9.95;48.66;99265.16;106639;1274;95203;-74
2022/03/29 11:02:09;;;;;;;26.40;16.40;;;;;;;9.85;48.85;99266.84;106527;1274;137107;-76
2022/03/29 11:05:05;;;;;;;22.90;16.50;;;;;;;9.82;49.20;99260.91;107590;1274;108143;-75
2022/03/29 11:07:39;;;;;;;20.10;16.50;;;;;;;9.86;49.27;99256.90;107224;1274;140249;-76
2022/03/29 11:10:14;;;;;;;33.90;18.60;;;;;;;9.94;49.33;99254.97;106149;1274;109070;-75
2022/03/29 11:12:49;;;;;;;24.30;16.70;;;;;;;10.03;49.09;99253.52;107647;1274;93487;-75
2022/03/29 11:15:47;;;;;;;25.40;16.80;;;;;;;10.04;48.59;99253.98;106237;1273;137331;-76
2022/03/29 11:18:49;;;;;;;;;;;;;;;9.95;48.38;99251.81;106163;1274;109185;-76
2022/03/29 11:21:36;;;;;;;22.70;15.20;;;;;;;9.77;48.21;99254.20;106127;1274;123524;-76
2022/03/29 11:24:13;;;;;;;24.40;16.50;;;;;;;9.60;48.45;99256.32;106350;1274;108849;-76
2022/03/29 11:26:59;;;;;;;20.00;14.70;;;;;;;9.48;48.62;99261.19;107250;1274;137685;-75
2022/03/29 11:29:32;;;;;;;23.40;14.60;;;;;;;9.35;49.02;99246.82;106814;1273;95254;-74
2022/03/29 11:32:05;;;;;;;22.90;14.70;;;;;;;9.30;49.17;99247.02;106043;1274;136948;-76
2022/03/29 11:34:40;;;;;;;22.10;15.10;;;;;;;9.29;49.45;99244.11;107647;1274;108975;-75
2022/03/29 11:37:28;;;;;;;22.90;15.10;;;;;;;9.29;49.70;99244.14;107462;1274;137275;-75
2022/03/29 11:40:02;;;;;;;23.20;15.30;;;;;;;9.27;49.82;99243.70;107630;1274;93260;-75
2022/03/29 11:42:45;;;;;;;22.20;14.70;;;;;;;9.25;49.87;99241.35;107689;1274;93354;-76
2022/03/29 11:45:19;;;;;;;23.40;15.50;;;;;;;9.20;49.80;99235.67;106283;1274;136766;-77
2022/03/29 11:48:02;;;;;;;25.00;15.40;;;;;;;9.14;49.81;99239.57;106187;1274;109033;-77
2022/03/29 11:50:36;;;;;;;22.50;16.10;;;;;;;9.07;50.13;99228.42;106103;1274;138576;-75
2022/03/29 11:53:19;;;;;;;24.10;15.50;;;;;;;8.99;50.31;99228.41;106180;1274;95223;-76
2022/03/29 11:56:02;;;;;;;21.40;14.20;;;;;;;8.93;49.80;99228.14;107554;1274;136715;-77